Terminal Aerodrome Forecast
Issued by NWS

Home | Current Version | Previous Version | Text Only | Print | Product List | Glossary On
Versions: 1 2 3 4 5 6 7 8 9 10 11 12 13
951
FTUS46 KPDT 051137
TAFDLS
TAF
KDLS 051137Z 0512/0612 32009KT P6SM BKN150
     FM051800 32012G18KT P6SM SCT080 BKN110
     FM052100 32013G20KT P6SM VCSH SCT070 BKN100
     FM060300 31012KT P6SM BKN090=

USA.gov is the U.S. government's official web portal to all federal, state and local government web resources and services.